createdAt,value
2022-11-30T00:01:37.685Z,3.60
2022-11-30T00:04:06.054Z,3.50
2022-11-30T00:06:34.312Z,3.50
2022-11-30T00:09:02.723Z,3.40
2022-11-30T00:11:30.914Z,3.40
2022-11-30T00:13:59.309Z,3.50
2022-11-30T00:16:29.133Z,3.50
2022-11-30T00:18:57.349Z,3.40
2022-11-30T00:21:25.648Z,3.40
2022-11-30T00:23:53.831Z,3.30
2022-11-30T00:26:22.790Z,3.20
2022-11-30T00:28:51.215Z,3.20
2022-11-30T00:31:20.962Z,3.50
2022-11-30T00:33:50.606Z,3.50
2022-11-30T00:36:21.981Z,3.40
2022-11-30T00:38:52.843Z,3.40
2022-11-30T00:41:22.283Z,3.50
2022-11-30T00:43:50.458Z,3.50
2022-11-30T00:46:18.941Z,3.40
2022-11-30T00:48:47.516Z,3.40
2022-11-30T00:51:18.435Z,3.40
2022-11-30T00:53:47.556Z,3.50
2022-11-30T00:56:16.026Z,3.50
2022-11-30T00:58:44.995Z,3.50
2022-11-30T01:01:13.279Z,3.50
2022-11-30T01:03:42.090Z,3.50
2022-11-30T01:06:11.808Z,3.50
2022-11-30T01:08:41.373Z,3.40
2022-11-30T01:11:15.711Z,3.20
2022-11-30T01:13:43.909Z,3.30
2022-11-30T01:16:16.674Z,3.40
2022-11-30T01:18:46.092Z,3.30
2022-11-30T01:21:19.090Z,3.30
2022-11-30T01:23:50.077Z,3.30
2022-11-30T01:26:19.491Z,3.40
2022-11-30T01:28:52.816Z,3.40
2022-11-30T01:31:23.546Z,3.50
2022-11-30T01:33:54.250Z,3.60
2022-11-30T01:36:25.860Z,3.40
2022-11-30T01:38:58.159Z,3.40
2022-11-30T01:41:29.948Z,3.40
2022-11-30T01:44:26.391Z,3.30
2022-11-30T01:47:01.987Z,3.30
2022-11-30T01:49:34.876Z,3.30
2022-11-30T01:52:07.281Z,3.30
2022-11-30T01:54:46.845Z,3.30
2022-11-30T01:57:22.859Z,3.20
2022-11-30T01:59:56.287Z,3.30
2022-11-30T02:02:34.005Z,3.30
2022-11-30T02:05:03.369Z,3.30
2022-11-30T02:07:31.675Z,3.30
2022-11-30T02:10:01.546Z,3.40
2022-11-30T02:12:40.930Z,3.50
2022-11-30T02:15:18.798Z,3.50
2022-11-30T02:17:59.082Z,3.40
2022-11-30T02:21:00.832Z,3.20
2022-11-30T02:24:21.469Z,3.20
2022-11-30T02:27:12.554Z,3.20
2022-11-30T02:29:48.547Z,3.40
2022-11-30T02:32:24.321Z,3.50
2022-11-30T02:34:55.840Z,3.60
2022-11-30T02:37:26.827Z,3.60
2022-11-30T02:39:55.083Z,3.50
2022-11-30T02:42:23.426Z,3.50
2022-11-30T02:44:55.368Z,3.40
2022-11-30T02:47:32.393Z,3.40
2022-11-30T02:50:05.608Z,3.30
2022-11-30T02:52:35.327Z,3.20
2022-11-30T02:55:07.396Z,3.10
2022-11-30T02:57:36.692Z,3.00
2022-11-30T03:00:10.708Z,3.00
2022-11-30T03:02:39.160Z,3.20
2022-11-30T03:05:09.163Z,3.30
2022-11-30T03:07:37.566Z,3.40
2022-11-30T03:10:07.362Z,3.20
2022-11-30T03:12:35.623Z,3.20
2022-11-30T03:15:05.728Z,3.40
2022-11-30T03:17:34.088Z,3.30
2022-11-30T03:20:02.315Z,3.40
2022-11-30T03:22:30.491Z,3.40
2022-11-30T03:24:58.682Z,3.40
2022-11-30T03:27:26.898Z,3.20
2022-11-30T03:29:55.472Z,3.20
2022-11-30T03:32:24.992Z,3.30
2022-11-30T03:34:53.136Z,3.30
2022-11-30T03:37:21.348Z,3.20
2022-11-30T03:39:54.843Z,3.20
2022-11-30T03:42:26.212Z,3.30
2022-11-30T03:44:54.362Z,3.40
2022-11-30T03:47:23.912Z,3.30
2022-11-30T03:49:52.053Z,3.50
2022-11-30T03:52:20.208Z,3.60
2022-11-30T03:54:48.569Z,3.50
2022-11-30T03:57:17.078Z,3.70
2022-11-30T03:59:45.303Z,3.30
2022-11-30T04:02:13.787Z,3.30
2022-11-30T04:04:43.371Z,3.20
2022-11-30T04:07:11.519Z,3.20
2022-11-30T04:09:39.712Z,3.40
2022-11-30T04:12:08.185Z,3.40
2022-11-30T04:14:36.405Z,3.30
2022-11-30T04:17:04.769Z,3.40
2022-11-30T04:19:32.950Z,3.20
2022-11-30T04:22:02.492Z,3.00
2022-11-30T04:24:30.641Z,3.00
2022-11-30T04:26:58.857Z,3.10
2022-11-30T04:29:27.066Z,3.20
2022-11-30T04:31:55.194Z,3.20
2022-11-30T04:34:23.415Z,3.10
2022-11-30T04:36:54.850Z,3.10
2022-11-30T04:39:26.938Z,3.10
2022-11-30T04:41:55.086Z,3.00
2022-11-30T04:44:23.295Z,3.10
2022-11-30T04:46:51.546Z,2.90
2022-11-30T04:49:19.737Z,3.00
2022-11-30T04:51:47.949Z,3.00
2022-11-30T04:54:16.131Z,2.90
2022-11-30T04:56:45.747Z,2.90
2022-11-30T04:59:14.159Z,3.00
2022-11-30T05:01:42.451Z,3.00
2022-11-30T05:04:10.706Z,2.90
2022-11-30T05:06:38.953Z,2.90
2022-11-30T05:09:07.116Z,2.80
2022-11-30T05:11:35.323Z,2.80
2022-11-30T05:14:05.522Z,2.70
2022-11-30T05:16:33.828Z,2.80
2022-11-30T05:19:02.196Z,2.80
2022-11-30T05:21:30.498Z,2.80
2022-11-30T05:23:58.779Z,2.90
2022-11-30T05:26:27.037Z,3.00
2022-11-30T05:28:55.598Z,2.90
2022-11-30T05:31:26.373Z,2.80
2022-11-30T05:33:55.345Z,2.80
2022-11-30T05:36:24.317Z,2.80
2022-11-30T05:38:52.695Z,2.80
2022-11-30T05:41:20.888Z,2.80
2022-11-30T05:43:49.064Z,2.80
2022-11-30T05:46:17.488Z,2.80
2022-11-30T05:48:47.044Z,2.90
2022-11-30T05:51:18.103Z,2.90
2022-11-30T05:53:48.346Z,2.90
2022-11-30T05:56:20.450Z,2.80
2022-11-30T05:58:49.891Z,2.90
2022-11-30T06:01:22.553Z,2.70
2022-11-30T06:03:52.960Z,2.60
2022-11-30T06:06:21.980Z,2.50
2022-11-30T06:08:51.305Z,2.50
2022-11-30T06:11:19.730Z,2.60
2022-11-30T06:13:47.953Z,2.50
2022-11-30T06:16:16.136Z,2.50
2022-11-30T06:18:44.306Z,2.50
2022-11-30T06:21:14.253Z,2.40
2022-11-30T06:23:42.839Z,2.40
2022-11-30T06:26:13.693Z,2.30
2022-11-30T06:28:46.567Z,2.40
2022-11-30T06:31:16.503Z,2.40
2022-11-30T06:33:45.023Z,2.30
2022-11-30T06:36:14.729Z,2.30
2022-11-30T06:38:42.889Z,2.20
2022-11-30T06:41:12.631Z,2.20
2022-11-30T06:43:41.289Z,2.20
2022-11-30T06:46:10.115Z,2.20
2022-11-30T06:48:38.325Z,2.30
2022-11-30T06:51:08.735Z,2.20
2022-11-30T06:53:39.065Z,2.20
2022-11-30T06:56:10.749Z,2.10
2022-11-30T06:58:40.135Z,2.30
2022-11-30T07:01:10.936Z,2.40
2022-11-30T07:03:39.704Z,2.50
2022-11-30T07:06:10.779Z,2.60
2022-11-30T07:08:41.473Z,2.40
2022-11-30T07:11:11.928Z,2.40
2022-11-30T07:13:40.498Z,2.50
2022-11-30T07:16:12.190Z,2.50
2022-11-30T07:18:40.442Z,2.60
2022-11-30T07:21:08.854Z,2.60
2022-11-30T07:23:56.990Z,2.40
2022-11-30T07:26:28.195Z,2.40
2022-11-30T07:28:58.309Z,2.50
2022-11-30T07:31:29.633Z,2.50
2022-11-30T07:34:00.253Z,2.50
2022-11-30T07:36:30.257Z,2.60
2022-11-30T07:38:58.938Z,2.60
2022-11-30T07:41:29.012Z,2.60
2022-11-30T07:43:57.428Z,2.60
2022-11-30T07:46:25.623Z,2.80
2022-11-30T07:48:54.302Z,2.70
2022-11-30T07:51:23.761Z,2.70
2022-11-30T07:53:52.404Z,2.50
2022-11-30T07:56:21.886Z,2.60
2022-11-30T07:58:55.322Z,2.60
2022-11-30T08:01:26.211Z,2.80
2022-11-30T08:03:55.388Z,2.80
2022-11-30T08:06:27.977Z,3.00
2022-11-30T08:08:59.680Z,3.00
2022-11-30T08:11:31.044Z,2.70
2022-11-30T08:14:00.911Z,2.60
2022-11-30T08:16:31.783Z,2.60
2022-11-30T08:19:01.094Z,2.70
2022-11-30T08:21:29.421Z,2.80
2022-11-30T08:23:58.516Z,3.10
2022-11-30T08:26:29.568Z,3.20
2022-11-30T08:29:01.321Z,3.30
2022-11-30T08:31:32.374Z,2.80
2022-11-30T08:34:03.234Z,3.10
2022-11-30T08:36:33.162Z,3.10
2022-11-30T08:39:04.860Z,2.90
2022-11-30T08:41:34.743Z,2.70
2022-11-30T08:44:04.434Z,2.90
2022-11-30T08:49:23.896Z,2.60
2022-11-30T08:54:48.619Z,3.00
2022-11-30T08:57:19.206Z,3.10
2022-11-30T08:59:49.490Z,3.00
2022-11-30T09:02:20.303Z,2.90
2022-11-30T09:04:51.130Z,2.80
2022-11-30T09:07:19.747Z,2.50
2022-11-30T09:09:48.316Z,2.40
2022-11-30T09:12:16.667Z,2.50
2022-11-30T09:14:46.919Z,2.70
2022-11-30T09:17:19.242Z,2.70
2022-11-30T09:19:47.586Z,2.80
2022-11-30T09:22:15.758Z,2.90
2022-11-30T09:24:44.007Z,2.60
2022-11-30T09:27:12.437Z,2.70
2022-11-30T09:29:40.632Z,2.80
2022-11-30T09:32:08.780Z,2.70
2022-11-30T09:34:38.437Z,2.70
2022-11-30T09:37:06.655Z,2.60
2022-11-30T09:39:34.981Z,2.50
2022-11-30T09:42:33.669Z,2.40
2022-11-30T09:45:12.063Z,2.40
2022-11-30T09:48:07.411Z,2.10
2022-11-30T09:50:44.041Z,2.10
2022-11-30T09:53:27.792Z,2.20
2022-11-30T09:55:59.268Z,2.20
2022-11-30T09:58:44.765Z,2.20
2022-11-30T10:01:21.018Z,2.30
2022-11-30T10:03:50.461Z,2.30
2022-11-30T10:06:35.707Z,2.30
2022-11-30T10:09:38.130Z,2.30
2022-11-30T10:12:14.152Z,2.00
2022-11-30T10:15:23.699Z,1.90
2022-11-30T10:17:56.444Z,1.80
2022-11-30T10:20:53.250Z,2.10
2022-11-30T10:23:53.940Z,2.10
2022-11-30T10:26:33.459Z,2.20
2022-11-30T10:29:15.692Z,2.20
2022-11-30T10:31:46.776Z,2.10
2022-11-30T10:34:22.192Z,2.10
2022-11-30T10:36:59.614Z,1.90
2022-11-30T10:39:36.113Z,1.90
2022-11-30T10:42:14.309Z,1.70
2022-11-30T10:44:52.803Z,1.60
2022-11-30T10:47:31.082Z,1.40
2022-11-30T10:49:59.289Z,1.40
2022-11-30T10:52:32.826Z,1.40
2022-11-30T10:55:05.147Z,1.40
2022-11-30T10:57:34.444Z,1.60
2022-11-30T11:00:07.506Z,1.70
2022-11-30T11:02:41.188Z,1.60
2022-11-30T11:05:17.938Z,1.60
2022-11-30T11:08:18.632Z,1.70
2022-11-30T11:10:51.544Z,1.80
2022-11-30T11:13:36.516Z,1.90
2022-11-30T11:16:06.937Z,2.00
2022-11-30T11:18:36.344Z,2.20
2022-11-30T11:21:08.848Z,2.30
2022-11-30T11:23:41.068Z,2.30
2022-11-30T11:26:20.411Z,2.20
2022-11-30T11:28:51.949Z,2.20
2022-11-30T11:31:37.202Z,2.40
2022-11-30T11:34:23.596Z,2.30
2022-11-30T11:37:08.205Z,2.10
2022-11-30T11:39:36.472Z,1.90
2022-11-30T11:42:06.436Z,2.00
2022-11-30T11:44:34.886Z,1.90
2022-11-30T11:47:08.309Z,1.90
2022-11-30T11:49:39.900Z,2.10
2022-11-30T11:52:19.563Z,2.10
2022-11-30T11:54:54.763Z,2.20
2022-11-30T11:57:41.308Z,2.30
2022-11-30T12:00:19.434Z,2.20
2022-11-30T12:02:59.709Z,2.30
2022-11-30T12:05:34.420Z,2.20
2022-11-30T12:08:14.435Z,2.00
2022-11-30T12:10:52.490Z,2.00
2022-11-30T12:13:28.533Z,2.20
2022-11-30T12:16:10.388Z,2.20
2022-11-30T12:18:50.874Z,2.40
2022-11-30T12:21:37.087Z,2.30
2022-11-30T12:24:39.005Z,2.20
2022-11-30T12:27:23.574Z,2.40
2022-11-30T12:30:10.566Z,2.40
2022-11-30T12:33:12.656Z,2.10
2022-11-30T12:35:59.726Z,2.00
2022-11-30T12:38:44.035Z,2.00
2022-11-30T12:41:31.680Z,2.20
2022-11-30T12:44:22.220Z,2.00
2022-11-30T12:47:05.651Z,1.80
2022-11-30T12:49:58.985Z,2.00
2022-11-30T12:52:42.275Z,2.10
2022-11-30T12:55:29.926Z,2.10
2022-11-30T12:58:09.204Z,2.20
2022-11-30T13:00:53.219Z,2.40
2022-11-30T13:03:49.259Z,2.20
2022-11-30T13:06:24.343Z,2.20
2022-11-30T13:09:03.173Z,2.30
2022-11-30T13:11:37.820Z,2.10
2022-11-30T13:14:14.671Z,2.00
2022-11-30T13:16:45.168Z,1.90
2022-11-30T13:19:49.024Z,1.90
2022-11-30T13:22:27.428Z,1.90
2022-11-30T13:25:10.729Z,2.30
2022-11-30T13:27:55.649Z,2.50
2022-11-30T13:30:39.792Z,2.50
2022-11-30T13:33:40.365Z,2.40
2022-11-30T13:36:30.028Z,2.40
2022-11-30T13:39:31.799Z,2.50
2022-11-30T13:42:34.421Z,2.20
2022-11-30T13:45:32.083Z,2.50
2022-11-30T13:48:17.309Z,2.30
2022-11-30T13:50:50.055Z,2.10
2022-11-30T13:53:30.645Z,2.00
2022-11-30T13:56:22.333Z,1.90
2022-11-30T13:59:36.161Z,1.90
2022-11-30T14:03:00.067Z,2.00
2022-11-30T14:05:40.693Z,2.10
2022-11-30T14:08:40.424Z,2.00
2022-11-30T14:11:40.503Z,2.20
2022-11-30T14:14:50.241Z,2.30
2022-11-30T14:17:24.300Z,2.50
2022-11-30T14:19:57.952Z,2.20
2022-11-30T14:22:29.718Z,2.20
2022-11-30T14:24:59.716Z,2.30
2022-11-30T14:27:31.439Z,2.30
2022-11-30T14:30:05.238Z,2.20
2022-11-30T14:32:41.807Z,2.20
2022-11-30T14:35:16.700Z,2.00
2022-11-30T14:37:52.388Z,2.10
2022-11-30T14:40:28.171Z,2.20
2022-11-30T14:42:59.077Z,2.10
2022-11-30T14:45:29.789Z,2.10
2022-11-30T14:48:08.980Z,2.10
2022-11-30T14:50:43.288Z,2.10
2022-11-30T14:53:32.116Z,2.10
2022-11-30T14:56:13.469Z,2.00
2022-11-30T14:58:51.872Z,2.00
2022-11-30T15:01:26.589Z,1.90
2022-11-30T15:03:59.437Z,1.70
2022-11-30T15:06:33.295Z,1.80
2022-11-30T15:09:03.492Z,1.80
2022-11-30T15:11:33.271Z,1.80
2022-11-30T15:14:11.574Z,1.90
2022-11-30T15:16:47.962Z,2.20
2022-11-30T15:19:25.520Z,2.20
2022-11-30T15:21:56.091Z,2.10
2022-11-30T15:24:25.169Z,2.10
2022-11-30T15:26:59.067Z,2.00
2022-11-30T15:29:32.451Z,2.00
2022-11-30T15:32:06.041Z,1.80
2022-11-30T15:34:40.503Z,1.90
2022-11-30T15:37:09.268Z,2.00
2022-11-30T15:39:38.747Z,2.00
2022-11-30T15:42:09.100Z,2.00
2022-11-30T15:44:46.584Z,2.00
2022-11-30T15:47:28.784Z,2.00
2022-11-30T15:49:57.529Z,1.90
2022-11-30T15:52:29.353Z,1.70
2022-11-30T15:55:02.101Z,1.70
2022-11-30T15:58:00.449Z,1.80
2022-11-30T16:00:29.296Z,1.80
2022-11-30T16:03:10.160Z,1.90
2022-11-30T16:05:40.264Z,1.90
2022-11-30T16:08:16.485Z,1.80
2022-11-30T16:10:44.878Z,1.80
2022-11-30T16:13:17.195Z,2.00
2022-11-30T16:15:47.906Z,2.00
2022-11-30T16:18:19.975Z,2.10
2022-11-30T16:20:51.468Z,2.10
2022-11-30T16:23:20.573Z,1.80
2022-11-30T16:25:51.099Z,1.90
2022-11-30T16:28:22.347Z,1.90
2022-11-30T16:30:57.856Z,1.80
2022-11-30T16:33:26.673Z,1.80
2022-11-30T16:35:57.953Z,1.90
2022-11-30T16:38:27.505Z,1.80
2022-11-30T16:40:56.728Z,1.80
2022-11-30T16:43:26.757Z,1.90
2022-11-30T16:45:55.068Z,1.70
2022-11-30T16:48:23.439Z,1.90
2022-11-30T16:50:52.327Z,2.00
2022-11-30T16:53:22.780Z,2.00
2022-11-30T16:55:53.042Z,1.90
2022-11-30T16:58:21.498Z,1.90
2022-11-30T17:00:51.330Z,1.80
2022-11-30T17:03:25.007Z,1.80
2022-11-30T17:05:53.293Z,1.80
2022-11-30T17:08:21.503Z,1.80
2022-11-30T17:10:54.241Z,1.90
2022-11-30T17:13:23.147Z,1.80
2022-11-30T17:15:52.718Z,1.80
2022-11-30T17:18:21.025Z,1.80
2022-11-30T17:20:49.317Z,1.90
2022-11-30T17:23:17.556Z,1.70
2022-11-30T17:25:47.161Z,1.50
2022-11-30T17:28:15.327Z,1.30
2022-11-30T17:30:43.693Z,1.50
2022-11-30T17:33:13.369Z,1.50
2022-11-30T17:35:41.870Z,1.30
2022-11-30T17:38:10.367Z,1.20
2022-11-30T17:40:41.858Z,1.40
2022-11-30T17:43:10.201Z,2.00
2022-11-30T17:45:41.250Z,1.60
2022-11-30T17:48:09.556Z,1.90
2022-11-30T17:50:40.767Z,1.50
2022-11-30T17:53:11.214Z,1.70
2022-11-30T17:55:42.946Z,1.70
2022-11-30T17:58:11.163Z,1.70
2022-11-30T18:00:39.388Z,1.70
2022-11-30T18:03:07.731Z,1.60
2022-11-30T18:05:35.874Z,1.40
2022-11-30T18:08:05.860Z,1.30
2022-11-30T18:10:34.000Z,1.50
2022-11-30T18:13:02.170Z,1.60
2022-11-30T18:15:30.396Z,1.60
2022-11-30T18:18:01.056Z,1.40
2022-11-30T18:20:29.647Z,1.40
2022-11-30T18:22:57.800Z,1.50
2022-11-30T18:25:27.414Z,1.60
2022-11-30T18:27:55.754Z,1.60
2022-11-30T18:30:23.989Z,1.50
2022-11-30T18:32:52.680Z,1.70
2022-11-30T18:35:20.900Z,1.70
2022-11-30T18:37:49.077Z,1.60
2022-11-30T18:40:18.001Z,1.60
2022-11-30T18:42:49.436Z,1.60
2022-11-30T18:45:17.668Z,1.50
2022-11-30T18:47:45.859Z,1.60
2022-11-30T18:50:14.306Z,1.50
2022-11-30T18:52:42.685Z,1.50
2022-11-30T18:55:11.555Z,1.50
2022-11-30T18:57:39.808Z,1.50
2022-11-30T19:00:11.278Z,1.50
2022-11-30T19:02:39.571Z,1.40
2022-11-30T19:05:13.437Z,1.40
2022-11-30T19:07:41.956Z,1.40
2022-11-30T19:10:10.902Z,1.40
2022-11-30T19:12:39.065Z,1.40
2022-11-30T19:15:10.097Z,1.20
2022-11-30T19:17:38.249Z,1.10
2022-11-30T19:20:09.129Z,0.90
2022-11-30T19:22:37.564Z,1.00
2022-11-30T19:25:07.469Z,1.00
2022-11-30T19:27:36.759Z,1.20
2022-11-30T19:30:05.992Z,1.40
2022-11-30T19:32:35.956Z,1.40
2022-11-30T19:35:04.709Z,1.40
2022-11-30T19:37:32.917Z,1.40
2022-11-30T19:40:01.103Z,1.40
2022-11-30T19:42:31.414Z,1.40
2022-11-30T19:44:59.518Z,1.30
2022-11-30T19:47:27.723Z,1.10
2022-11-30T19:49:57.311Z,1.00
2022-11-30T19:52:25.468Z,1.10
2022-11-30T19:54:53.653Z,1.20
2022-11-30T19:57:21.914Z,1.30
2022-11-30T19:59:50.160Z,1.30
2022-11-30T20:02:18.601Z,1.20
2022-11-30T20:04:47.061Z,1.20
2022-11-30T20:07:16.845Z,1.10
2022-11-30T20:09:45.077Z,1.00
2022-11-30T20:12:13.364Z,0.80
2022-11-30T20:14:41.539Z,0.80
2022-11-30T20:17:09.948Z,1.00
2022-11-30T20:19:38.385Z,1.10
2022-11-30T20:22:09.368Z,1.30
2022-11-30T20:24:38.987Z,1.20
2022-11-30T20:27:07.304Z,1.40
2022-11-30T20:29:35.685Z,1.30
2022-11-30T20:32:03.883Z,1.10
2022-11-30T20:34:35.226Z,1.00
2022-11-30T20:37:04.916Z,0.90
2022-11-30T20:39:33.268Z,0.90
2022-11-30T20:42:03.267Z,1.00
2022-11-30T20:44:31.481Z,1.20
2022-11-30T20:46:59.654Z,1.30
2022-11-30T20:49:28.487Z,1.40
2022-11-30T20:51:56.736Z,1.50
2022-11-30T20:54:25.077Z,1.30
2022-11-30T20:56:53.333Z,1.20
2022-11-30T20:59:26.365Z,1.00
2022-11-30T21:01:56.523Z,0.90
2022-11-30T21:04:26.752Z,0.90
2022-11-30T21:06:55.405Z,1.10
2022-11-30T21:09:23.647Z,1.00
2022-11-30T21:11:51.855Z,0.80
2022-11-30T21:14:20.433Z,0.90
2022-11-30T21:16:49.979Z,1.20
2022-11-30T21:19:18.158Z,0.90
2022-11-30T21:21:46.342Z,1.10
2022-11-30T21:24:14.508Z,1.10
2022-11-30T21:26:44.020Z,1.20
2022-11-30T21:29:14.974Z,1.40
2022-11-30T21:31:44.003Z,1.40
2022-11-30T21:34:14.421Z,1.40
2022-11-30T21:36:43.172Z,1.40
2022-11-30T21:39:15.640Z,1.30
2022-11-30T21:41:44.289Z,1.30
2022-11-30T21:44:15.738Z,1.30
2022-11-30T21:46:45.445Z,1.30
2022-11-30T21:49:16.703Z,1.30
2022-11-30T21:51:44.972Z,1.20
2022-11-30T21:54:14.638Z,1.30
2022-11-30T21:56:44.680Z,1.30
2022-11-30T21:59:15.707Z,1.20
2022-11-30T22:01:45.967Z,1.20
2022-11-30T22:04:16.325Z,1.30
2022-11-30T22:06:45.007Z,0.90
2022-11-30T22:09:15.932Z,0.70
2022-11-30T22:11:46.554Z,0.90
2022-11-30T22:14:17.789Z,1.00
2022-11-30T22:16:46.678Z,1.20
2022-11-30T22:19:18.206Z,1.20
2022-11-30T22:21:50.029Z,1.10
2022-11-30T22:24:18.709Z,1.10
2022-11-30T22:26:49.060Z,1.10
2022-11-30T22:29:19.906Z,1.30
2022-11-30T22:31:50.257Z,1.30
2022-11-30T22:34:20.683Z,1.10
2022-11-30T22:36:49.433Z,0.80
2022-11-30T22:39:20.172Z,0.80
2022-11-30T22:41:55.038Z,1.00
2022-11-30T22:44:24.198Z,1.00
2022-11-30T22:46:52.538Z,1.00
2022-11-30T22:49:22.345Z,1.30
2022-11-30T22:51:51.227Z,1.10
2022-11-30T22:54:19.678Z,1.20
2022-11-30T22:56:47.986Z,1.00
2022-11-30T22:59:16.999Z,1.20
2022-11-30T23:01:48.391Z,1.10
2022-11-30T23:04:20.518Z,1.00
2022-11-30T23:06:51.255Z,1.10
2022-11-30T23:09:23.106Z,1.00
2022-11-30T23:11:51.995Z,1.10
2022-11-30T23:14:21.058Z,0.90
2022-11-30T23:16:49.498Z,1.10
2022-11-30T23:19:18.097Z,1.10
2022-11-30T23:21:46.694Z,1.10
2022-11-30T23:24:20.164Z,1.00
2022-11-30T23:26:48.950Z,1.10
2022-11-30T23:29:18.841Z,1.10
2022-11-30T23:31:48.094Z,1.20
2022-11-30T23:34:19.218Z,1.10
2022-11-30T23:36:49.531Z,1.00
2022-11-30T23:39:20.949Z,1.10
2022-11-30T23:41:49.176Z,1.10
2022-11-30T23:44:17.606Z,1.00
2022-11-30T23:46:46.594Z,1.00
2022-11-30T23:49:15.319Z,0.90
2022-11-30T23:51:43.982Z,0.90
2022-11-30T23:54:12.412Z,0.80
2022-11-30T23:56:42.093Z,0.60
2022-11-30T23:59:10.287Z,0.60
